sensor_id;sensor_type;location;lat;lon;timestamp;P1;durP1;ratioP1;P2;durP2;ratioP2
37645;SDS011;23489;49.600;6.138;2023-11-18T03:03:29;27.67;;;11.07;;
37645;SDS011;23489;49.600;6.138;2023-11-18T03:05:55;37.47;;;11.30;;
37645;SDS011;23489;49.600;6.138;2023-11-18T03:08:21;20.48;;;10.75;;
37645;SDS011;23489;49.600;6.138;2023-11-18T03:10:46;24.88;;;10.52;;
37645;SDS011;23489;49.600;6.138;2023-11-18T03:13:12;26.17;;;10.23;;
37645;SDS011;23489;49.600;6.138;2023-11-18T03:15:38;26.05;;;10.48;;
37645;SDS011;23489;49.600;6.138;2023-11-18T03:18:04;20.60;;;7.82;;
37645;SDS011;23489;49.600;6.138;2023-11-18T03:20:30;18.20;;;8.43;;
37645;SDS011;23489;49.600;6.138;2023-11-18T03:22:58;16.80;;;8.10;;
37645;SDS011;23489;49.600;6.138;2023-11-18T03:25:27;18.85;;;8.27;;
37645;SDS011;23489;49.600;6.138;2023-11-18T03:27:52;18.67;;;8.68;;
37645;SDS011;23489;49.600;6.138;2023-11-18T03:30:19;21.42;;;8.57;;
37645;SDS011;23489;49.600;6.138;2023-11-18T03:32:45;20.33;;;7.80;;
37645;SDS011;23489;49.600;6.138;2023-11-18T03:35:11;18.60;;;7.93;;
37645;SDS011;23489;49.600;6.138;2023-11-18T03:37:37;30.38;;;8.02;;
37645;SDS011;23489;49.600;6.138;2023-11-18T03:40:05;26.10;;;7.95;;
37645;SDS011;23489;49.600;6.138;2023-11-18T03:42:32;28.92;;;7.70;;
37645;SDS011;23489;49.600;6.138;2023-11-18T03:44:57;24.17;;;8.35;;
37645;SDS011;23489;49.600;6.138;2023-11-18T03:47:24;22.48;;;7.45;;
37645;SDS011;23489;49.600;6.138;2023-11-18T03:54:41;21.42;;;7.47;;
37645;SDS011;23489;49.600;6.138;2023-11-18T04:36:02;34.78;;;10.25;;
37645;SDS011;23489;49.600;6.138;2023-11-18T04:38:30;32.60;;;11.05;;
37645;SDS011;23489;49.600;6.138;2023-11-18T04:40:57;44.17;;;10.52;;
37645;SDS011;23489;49.600;6.138;2023-11-18T04:43:23;45.90;;;10.48;;
37645;SDS011;23489;49.600;6.138;2023-11-18T04:45:48;31.20;;;10.23;;
37645;SDS011;23489;49.600;6.138;2023-11-18T04:48:14;38.40;;;10.02;;
37645;SDS011;23489;49.600;6.138;2023-11-18T04:50:43;24.45;;;9.30;;
37645;SDS011;23489;49.600;6.138;2023-11-18T04:55:35;52.83;;;9.88;;
37645;SDS011;23489;49.600;6.138;2023-11-18T04:58:02;45.65;;;9.82;;
37645;SDS011;23489;49.600;6.138;2023-11-18T05:00:27;48.50;;;9.80;;
37645;SDS011;23489;49.600;6.138;2023-11-18T05:02:54;41.25;;;10.10;;
37645;SDS011;23489;49.600;6.138;2023-11-18T05:05:19;31.75;;;10.30;;
37645;SDS011;23489;49.600;6.138;2023-11-18T05:07:46;36.55;;;9.93;;
37645;SDS011;23489;49.600;6.138;2023-11-18T05:10:12;49.90;;;10.77;;
37645;SDS011;23489;49.600;6.138;2023-11-18T05:12:38;55.78;;;10.82;;
37645;SDS011;23489;49.600;6.138;2023-11-18T05:15:09;30.92;;;9.77;;
37645;SDS011;23489;49.600;6.138;2023-11-18T05:17:35;34.75;;;9.60;;
37645;SDS011;23489;49.600;6.138;2023-11-18T05:20:02;36.97;;;8.95;;
37645;SDS011;23489;49.600;6.138;2023-11-18T05:22:29;52.80;;;13.77;;
37645;SDS011;23489;49.600;6.138;2023-11-18T05:24:54;50.20;;;14.48;;
37645;SDS011;23489;49.600;6.138;2023-11-18T05:27:20;59.20;;;14.60;;
37645;SDS011;23489;49.600;6.138;2023-11-18T05:29:45;52.77;;;13.60;;
37645;SDS011;23489;49.600;6.138;2023-11-18T05:32:13;81.90;;;13.95;;
37645;SDS011;23489;49.600;6.138;2023-11-18T05:34:39;57.95;;;14.20;;
37645;SDS011;23489;49.600;6.138;2023-11-18T05:37:05;47.00;;;14.33;;
37645;SDS011;23489;49.600;6.138;2023-11-18T05:39:30;72.88;;;14.52;;
37645;SDS011;23489;49.600;6.138;2023-11-18T05:41:59;74.60;;;13.83;;
37645;SDS011;23489;49.600;6.138;2023-11-18T05:44:25;77.03;;;14.10;;
37645;SDS011;23489;49.600;6.138;2023-11-18T05:46:58;65.80;;;14.20;;
37645;SDS011;23489;49.600;6.138;2023-11-18T05:49:24;100.30;;;15.73;;
37645;SDS011;23489;49.600;6.138;2023-11-18T05:51:50;45.20;;;13.40;;
37645;SDS011;23489;49.600;6.138;2023-11-18T05:54:16;67.95;;;13.18;;
37645;SDS011;23489;49.600;6.138;2023-11-18T05:56:43;71.45;;;13.73;;
37645;SDS011;23489;49.600;6.138;2023-11-18T05:59:08;59.67;;;13.80;;
37645;SDS011;23489;49.600;6.138;2023-11-18T06:01:36;95.72;;;13.40;;
37645;SDS011;23489;49.600;6.138;2023-11-18T06:04:05;62.47;;;13.95;;
37645;SDS011;23489;49.600;6.138;2023-11-18T06:06:33;85.53;;;14.98;;
37645;SDS011;23489;49.600;6.138;2023-11-18T06:08:59;68.55;;;13.88;;
37645;SDS011;23489;49.600;6.138;2023-11-18T06:11:30;61.57;;;14.13;;
37645;SDS011;23489;49.600;6.138;2023-11-18T06:13:57;89.38;;;14.63;;
37645;SDS011;23489;49.600;6.138;2023-11-18T06:16:23;56.78;;;14.15;;
37645;SDS011;23489;49.600;6.138;2023-11-18T06:40:46;54.83;;;11.13;;
37645;SDS011;23489;49.600;6.138;2023-11-18T06:43:12;67.20;;;15.80;;
37645;SDS011;23489;49.600;6.138;2023-11-18T06:45:42;92.53;;;16.85;;
37645;SDS011;23489;49.600;6.138;2023-11-18T06:48:08;128.70;;;20.70;;
37645;SDS011;23489;49.600;6.138;2023-11-18T06:50:34;98.13;;;19.25;;
37645;SDS011;23489;49.600;6.138;2023-11-18T06:53:00;90.65;;;18.10;;
37645;SDS011;23489;49.600;6.138;2023-11-18T06:55:26;79.90;;;18.35;;
37645;SDS011;23489;49.600;6.138;2023-11-18T06:57:52;53.42;;;16.95;;
37645;SDS011;23489;49.600;6.138;2023-11-18T07:00:20;101.03;;;18.35;;
37645;SDS011;23489;49.600;6.138;2023-11-18T07:02:47;106.53;;;15.43;;
37645;SDS011;23489;49.600;6.138;2023-11-18T07:05:13;57.45;;;12.10;;
37645;SDS011;23489;49.600;6.138;2023-11-18T07:07:40;67.88;;;12.23;;
37645;SDS011;23489;49.600;6.138;2023-11-18T07:10:08;38.13;;;12.32;;
37645;SDS011;23489;49.600;6.138;2023-11-18T07:12:38;55.30;;;11.85;;
37645;SDS011;23489;49.600;6.138;2023-11-18T07:15:04;58.65;;;12.63;;
37645;SDS011;23489;49.600;6.138;2023-11-18T07:17:30;54.05;;;12.13;;
37645;SDS011;23489;49.600;6.138;2023-11-18T07:19:55;54.40;;;12.48;;
37645;SDS011;23489;49.600;6.138;2023-11-18T07:22:21;71.95;;;13.43;;
37645;SDS011;23489;49.600;6.138;2023-11-18T07:24:47;91.03;;;13.05;;
37645;SDS011;23489;49.600;6.138;2023-11-18T07:27:12;70.82;;;12.57;;
37645;SDS011;23489;49.600;6.138;2023-11-18T07:29:38;45.22;;;12.25;;
37645;SDS011;23489;49.600;6.138;2023-11-18T07:32:04;62.28;;;12.88;;
37645;SDS011;23489;49.600;6.138;2023-11-18T07:53:58;48.88;;;19.48;;
37645;SDS011;23489;49.600;6.138;2023-11-18T07:56:24;36.40;;;14.55;;
37645;SDS011;23489;49.600;6.138;2023-11-18T07:58:50;46.80;;;14.65;;
37645;SDS011;23489;49.600;6.138;2023-11-18T08:01:17;38.42;;;14.10;;
37645;SDS011;23489;49.600;6.138;2023-11-18T08:03:43;38.92;;;14.45;;
37645;SDS011;23489;49.600;6.138;2023-11-18T08:06:08;29.25;;;13.82;;
37645;SDS011;23489;49.600;6.138;2023-11-18T08:08:36;28.27;;;14.05;;
37645;SDS011;23489;49.600;6.138;2023-11-18T08:11:03;31.80;;;12.95;;
37645;SDS011;23489;49.600;6.138;2023-11-18T08:13:32;26.00;;;14.43;;
37645;SDS011;23489;49.600;6.138;2023-11-18T08:15:58;28.17;;;15.10;;
37645;SDS011;23489;49.600;6.138;2023-11-18T08:18:23;27.58;;;13.32;;
37645;SDS011;23489;49.600;6.138;2023-11-18T08:20:49;30.10;;;13.32;;
37645;SDS011;23489;49.600;6.138;2023-11-18T08:23:15;22.60;;;12.85;;
37645;SDS011;23489;49.600;6.138;2023-11-18T08:25:41;23.23;;;12.40;;
37645;SDS011;23489;49.600;6.138;2023-11-18T08:28:07;21.48;;;11.68;;
37645;SDS011;23489;49.600;6.138;2023-11-18T08:30:34;25.27;;;12.20;;
37645;SDS011;23489;49.600;6.138;2023-11-18T08:33:00;24.88;;;12.52;;
37645;SDS011;23489;49.600;6.138;2023-11-18T08:35:25;28.55;;;13.18;;
37645;SDS011;23489;49.600;6.138;2023-11-18T08:37:51;22.95;;;12.82;;
37645;SDS011;23489;49.600;6.138;2023-11-18T08:40:17;24.02;;;12.23;;
37645;SDS011;23489;49.600;6.138;2023-11-18T08:42:50;25.05;;;12.18;;
37645;SDS011;23489;49.600;6.138;2023-11-18T08:45:20;28.05;;;13.02;;
37645;SDS011;23489;49.600;6.138;2023-11-18T08:47:53;21.35;;;12.93;;
37645;SDS011;23489;49.600;6.138;2023-11-18T08:50:20;23.85;;;12.38;;
37645;SDS011;23489;49.600;6.138;2023-11-18T08:52:49;21.02;;;11.68;;
37645;SDS011;23489;49.600;6.138;2023-11-18T08:55:19;22.77;;;12.50;;
37645;SDS011;23489;49.600;6.138;2023-11-18T08:57:49;22.65;;;12.23;;
37645;SDS011;23489;49.600;6.138;2023-11-18T09:00:23;25.20;;;13.75;;
37645;SDS011;23489;49.600;6.138;2023-11-18T09:03:11;27.08;;;14.00;;
37645;SDS011;23489;49.600;6.138;2023-11-18T09:05:58;27.52;;;15.18;;
37645;SDS011;23489;49.600;6.138;2023-11-18T09:10:57;34.50;;;16.55;;
37645;SDS011;23489;49.600;6.138;2023-11-18T09:13:24;30.48;;;15.52;;
37645;SDS011;23489;49.600;6.138;2023-11-18T09:16:00;30.88;;;16.75;;
37645;SDS011;23489;49.600;6.138;2023-11-18T09:18:38;30.40;;;15.75;;
37645;SDS011;23489;49.600;6.138;2023-11-18T09:21:05;30.23;;;16.55;;
37645;SDS011;23489;49.600;6.138;2023-11-18T09:23:32;33.35;;;17.13;;
37645;SDS011;23489;49.600;6.138;2023-11-18T09:26:03;32.58;;;17.40;;
37645;SDS011;23489;49.600;6.138;2023-11-18T09:28:33;33.20;;;17.33;;
37645;SDS011;23489;49.600;6.138;2023-11-18T09:31:03;38.95;;;18.60;;
37645;SDS011;23489;49.600;6.138;2023-11-18T09:33:30;35.92;;;17.90;;
37645;SDS011;23489;49.600;6.138;2023-11-18T09:36:00;32.70;;;16.80;;
37645;SDS011;23489;49.600;6.138;2023-11-18T09:38:30;37.05;;;19.13;;
37645;SDS011;23489;49.600;6.138;2023-11-18T09:40:57;33.03;;;17.77;;
37645;SDS011;23489;49.600;6.138;2023-11-18T09:43:28;34.75;;;17.75;;
37645;SDS011;23489;49.600;6.138;2023-11-18T09:45:59;31.85;;;16.70;;
37645;SDS011;23489;49.600;6.138;2023-11-18T09:48:42;30.80;;;16.45;;
37645;SDS011;23489;49.600;6.138;2023-11-18T09:51:10;35.00;;;16.90;;
37645;SDS011;23489;49.600;6.138;2023-11-18T09:53:46;30.80;;;16.45;;
37645;SDS011;23489;49.600;6.138;2023-11-18T09:58:59;33.30;;;15.70;;
37645;SDS011;23489;49.600;6.138;2023-11-18T10:01:30;28.73;;;15.07;;
37645;SDS011;23489;49.600;6.138;2023-11-18T10:04:04;27.80;;;15.57;;
37645;SDS011;23489;49.600;6.138;2023-11-18T10:06:32;33.13;;;20.25;;
37645;SDS011;23489;49.600;6.138;2023-11-18T10:09:01;30.17;;;18.83;;
37645;SDS011;23489;49.600;6.138;2023-11-18T10:11:41;31.77;;;19.90;;
37645;SDS011;23489;49.600;6.138;2023-11-18T10:14:07;27.92;;;18.52;;
37645;SDS011;23489;49.600;6.138;2023-11-18T10:16:34;31.20;;;18.67;;
37645;SDS011;23489;49.600;6.138;2023-11-18T10:18:59;28.48;;;18.30;;
37645;SDS011;23489;49.600;6.138;2023-11-18T10:21:36;26.02;;;14.95;;
37645;SDS011;23489;49.600;6.138;2023-11-18T10:24:05;24.67;;;14.13;;
37645;SDS011;23489;49.600;6.138;2023-11-18T10:27:00;20.33;;;13.23;;
37645;SDS011;23489;49.600;6.138;2023-11-18T10:29:25;22.00;;;13.00;;
37645;SDS011;23489;49.600;6.138;2023-11-18T10:32:05;23.63;;;12.85;;
37645;SDS011;23489;49.600;6.138;2023-11-18T10:34:35;21.42;;;13.07;;
37645;SDS011;23489;49.600;6.138;2023-11-18T10:37:01;18.20;;;12.15;;
37645;SDS011;23489;49.600;6.138;2023-11-18T10:39:31;17.52;;;11.35;;
37645;SDS011;23489;49.600;6.138;2023-11-18T10:42:00;22.17;;;11.77;;
37645;SDS011;23489;49.600;6.138;2023-11-18T10:44:27;22.60;;;12.10;;
37645;SDS011;23489;49.600;6.138;2023-11-18T10:46:54;21.30;;;12.18;;
37645;SDS011;23489;49.600;6.138;2023-11-18T10:49:22;23.63;;;13.55;;
37645;SDS011;23489;49.600;6.138;2023-11-18T10:51:50;21.02;;;12.93;;
37645;SDS011;23489;49.600;6.138;2023-11-18T10:54:16;22.35;;;12.20;;
37645;SDS011;23489;49.600;6.138;2023-11-18T10:56:50;20.13;;;12.05;;
37645;SDS011;23489;49.600;6.138;2023-11-18T10:59:16;22.85;;;12.75;;
37645;SDS011;23489;49.600;6.138;2023-11-18T11:01:43;23.45;;;12.70;;
37645;SDS011;23489;49.600;6.138;2023-11-18T11:04:10;22.83;;;13.30;;
37645;SDS011;23489;49.600;6.138;2023-11-18T11:06:44;22.98;;;13.38;;
37645;SDS011;23489;49.600;6.138;2023-11-18T11:09:25;20.52;;;12.25;;
37645;SDS011;23489;49.600;6.138;2023-11-18T11:11:54;20.40;;;11.70;;
37645;SDS011;23489;49.600;6.138;2023-11-18T11:14:31;19.15;;;10.82;;
37645;SDS011;23489;49.600;6.138;2023-11-18T11:22:14;25.43;;;15.57;;
37645;SDS011;23489;49.600;6.138;2023-11-18T11:27:25;21.10;;;13.60;;
37645;SDS011;23489;49.600;6.138;2023-11-18T12:18:13;17.67;;;10.88;;
37645;SDS011;23489;49.600;6.138;2023-11-18T12:20:42;19.13;;;11.50;;
37645;SDS011;23489;49.600;6.138;2023-11-18T12:23:28;19.15;;;11.35;;
37645;SDS011;23489;49.600;6.138;2023-11-18T12:25:55;18.20;;;11.15;;
37645;SDS011;23489;49.600;6.138;2023-11-18T12:28:30;19.20;;;11.40;;
37645;SDS011;23489;49.600;6.138;2023-11-18T12:31:00;18.85;;;10.65;;
37645;SDS011;23489;49.600;6.138;2023-11-18T12:39:20;21.00;;;11.88;;
37645;SDS011;23489;49.600;6.138;2023-11-18T12:42:18;19.08;;;11.60;;
37645;SDS011;23489;49.600;6.138;2023-11-18T12:45:27;21.85;;;14.50;;
37645;SDS011;23489;49.600;6.138;2023-11-18T12:48:08;22.08;;;15.43;;
37645;SDS011;23489;49.600;6.138;2023-11-18T12:50:42;25.80;;;16.55;;
37645;SDS011;23489;49.600;6.138;2023-11-18T12:53:11;21.05;;;15.68;;
37645;SDS011;23489;49.600;6.138;2023-11-18T12:55:39;23.52;;;17.02;;
37645;SDS011;23489;49.600;6.138;2023-11-18T12:58:06;24.13;;;16.48;;
37645;SDS011;23489;49.600;6.138;2023-11-18T13:00:32;18.52;;;14.43;;
37645;SDS011;23489;49.600;6.138;2023-11-18T13:03:00;21.13;;;16.05;;
37645;SDS011;23489;49.600;6.138;2023-11-18T13:05:26;18.63;;;13.47;;
37645;SDS011;23489;49.600;6.138;2023-11-18T13:07:55;16.90;;;12.65;;
37645;SDS011;23489;49.600;6.138;2023-11-18T13:10:23;15.80;;;11.68;;
37645;SDS011;23489;49.600;6.138;2023-11-18T13:12:49;14.60;;;11.75;;
37645;SDS011;23489;49.600;6.138;2023-11-18T13:15:15;14.68;;;10.75;;
37645;SDS011;23489;49.600;6.138;2023-11-18T13:17:56;12.82;;;9.48;;
37645;SDS011;23489;49.600;6.138;2023-11-18T13:20:25;11.30;;;8.35;;
37645;SDS011;23489;49.600;6.138;2023-11-18T13:22:51;10.32;;;7.53;;
37645;SDS011;23489;49.600;6.138;2023-11-18T13:25:23;11.40;;;7.90;;
37645;SDS011;23489;49.600;6.138;2023-11-18T13:27:50;9.52;;;7.50;;
37645;SDS011;23489;49.600;6.138;2023-11-18T13:30:16;12.43;;;7.28;;
37645;SDS011;23489;49.600;6.138;2023-11-18T13:32:45;8.67;;;6.30;;
37645;SDS011;23489;49.600;6.138;2023-11-18T13:35:11;9.63;;;7.13;;
37645;SDS011;23489;49.600;6.138;2023-11-18T13:37:39;9.43;;;6.65;;
37645;SDS011;23489;49.600;6.138;2023-11-18T13:40:06;8.65;;;6.38;;
37645;SDS011;23489;49.600;6.138;2023-11-18T13:42:33;11.60;;;6.43;;
37645;SDS011;23489;49.600;6.138;2023-11-18T13:45:19;8.10;;;5.85;;
37645;SDS011;23489;49.600;6.138;2023-11-18T13:47:50;8.77;;;5.97;;
37645;SDS011;23489;49.600;6.138;2023-11-18T13:50:17;8.65;;;6.10;;
37645;SDS011;23489;49.600;6.138;2023-11-18T13:52:44;8.73;;;6.03;;
37645;SDS011;23489;49.600;6.138;2023-11-18T13:55:11;9.23;;;5.70;;
37645;SDS011;23489;49.600;6.138;2023-11-18T13:57:45;9.63;;;5.85;;
37645;SDS011;23489;49.600;6.138;2023-11-18T14:00:11;7.47;;;5.20;;
37645;SDS011;23489;49.600;6.138;2023-11-18T14:02:40;8.48;;;5.22;;
37645;SDS011;23489;49.600;6.138;2023-11-18T14:05:14;8.52;;;5.47;;
37645;SDS011;23489;49.600;6.138;2023-11-18T14:07:41;8.38;;;5.30;;
37645;SDS011;23489;49.600;6.138;2023-11-18T14:10:08;7.90;;;5.25;;
37645;SDS011;23489;49.600;6.138;2023-11-18T14:12:38;6.40;;;4.57;;
37645;SDS011;23489;49.600;6.138;2023-11-18T14:15:04;6.70;;;4.55;;
37645;SDS011;23489;49.600;6.138;2023-11-18T14:17:35;7.43;;;4.20;;
37645;SDS011;23489;49.600;6.138;2023-11-18T14:20:01;9.30;;;4.43;;
37645;SDS011;23489;49.600;6.138;2023-11-18T14:22:27;7.00;;;4.35;;
37645;SDS011;23489;49.600;6.138;2023-11-18T14:24:53;6.07;;;4.38;;
37645;SDS011;23489;49.600;6.138;2023-11-18T14:27:19;6.90;;;4.45;;
37645;SDS011;23489;49.600;6.138;2023-11-18T14:29:44;6.83;;;4.20;;
37645;SDS011;23489;49.600;6.138;2023-11-18T14:32:11;6.75;;;4.30;;
37645;SDS011;23489;49.600;6.138;2023-11-18T14:34:39;6.07;;;4.20;;
37645;SDS011;23489;49.600;6.138;2023-11-18T14:37:06;7.00;;;3.57;;
37645;SDS011;23489;49.600;6.138;2023-11-18T14:39:32;4.45;;;3.40;;
37645;SDS011;23489;49.600;6.138;2023-11-18T14:41:58;6.40;;;3.53;;
37645;SDS011;23489;49.600;6.138;2023-11-18T14:44:24;3.80;;;3.00;;
37645;SDS011;23489;49.600;6.138;2023-11-18T14:46:50;6.32;;;3.80;;
37645;SDS011;23489;49.600;6.138;2023-11-18T14:49:16;5.03;;;3.97;;
37645;SDS011;23489;49.600;6.138;2023-11-18T14:51:43;5.97;;;4.00;;
37645;SDS011;23489;49.600;6.138;2023-11-18T14:54:08;4.10;;;2.92;;
37645;SDS011;23489;49.600;6.138;2023-11-18T14:56:34;4.97;;;2.88;;
37645;SDS011;23489;49.600;6.138;2023-11-18T14:58:59;6.32;;;4.15;;
37645;SDS011;23489;49.600;6.138;2023-11-18T15:01:26;4.07;;;2.78;;
37645;SDS011;23489;49.600;6.138;2023-11-18T15:03:51;3.97;;;2.53;;
37645;SDS011;23489;49.600;6.138;2023-11-18T15:06:26;6.28;;;2.80;;
37645;SDS011;23489;49.600;6.138;2023-11-18T15:08:52;3.38;;;2.45;;
37645;SDS011;23489;49.600;6.138;2023-11-18T15:11:21;4.38;;;2.60;;
37645;SDS011;23489;49.600;6.138;2023-11-18T15:13:48;3.45;;;3.15;;
37645;SDS011;23489;49.600;6.138;2023-11-18T15:16:15;4.90;;;2.50;;
37645;SDS011;23489;49.600;6.138;2023-11-18T15:18:44;3.80;;;2.63;;
37645;SDS011;23489;49.600;6.138;2023-11-18T15:21:12;4.47;;;2.72;;
37645;SDS011;23489;49.600;6.138;2023-11-18T15:23:40;5.75;;;2.67;;
37645;SDS011;23489;49.600;6.138;2023-11-18T15:26:07;3.58;;;2.58;;
37645;SDS011;23489;49.600;6.138;2023-11-18T15:28:33;3.75;;;2.20;;
37645;SDS011;23489;49.600;6.138;2023-11-18T15:31:00;2.15;;;1.95;;
37645;SDS011;23489;49.600;6.138;2023-11-18T15:33:27;3.40;;;2.33;;
37645;SDS011;23489;49.600;6.138;2023-11-18T15:35:53;4.50;;;2.30;;
37645;SDS011;23489;49.600;6.138;2023-11-18T15:38:19;3.33;;;2.45;;
37645;SDS011;23489;49.600;6.138;2023-11-18T15:40:47;3.40;;;2.30;;
37645;SDS011;23489;49.600;6.138;2023-11-18T15:43:14;3.50;;;2.67;;
37645;SDS011;23489;49.600;6.138;2023-11-18T15:45:41;4.10;;;2.70;;
37645;SDS011;23489;49.600;6.138;2023-11-18T16:12:49;3.25;;;2.40;;
37645;SDS011;23489;49.600;6.138;2023-11-18T16:20:11;4.30;;;2.75;;
37645;SDS011;23489;49.600;6.138;2023-11-18T16:22:40;4.40;;;2.50;;
37645;SDS011;23489;49.600;6.138;2023-11-18T16:25:07;3.25;;;2.20;;
37645;SDS011;23489;49.600;6.138;2023-11-18T16:27:34;4.72;;;2.25;;
37645;SDS011;23489;49.600;6.138;2023-11-18T16:30:01;7.70;;;4.95;;
37645;SDS011;23489;49.600;6.138;2023-11-18T16:32:27;5.03;;;3.25;;
37645;SDS011;23489;49.600;6.138;2023-11-18T16:34:53;5.32;;;4.30;;
37645;SDS011;23489;49.600;6.138;2023-11-18T16:37:19;5.85;;;4.00;;
37645;SDS011;23489;49.600;6.138;2023-11-18T16:39:45;5.65;;;3.83;;
37645;SDS011;23489;49.600;6.138;2023-11-18T16:42:11;5.00;;;3.50;;
37645;SDS011;23489;49.600;6.138;2023-11-18T16:44:36;3.92;;;3.53;;
37645;SDS011;23489;49.600;6.138;2023-11-18T16:47:03;4.45;;;3.35;;
37645;SDS011;23489;49.600;6.138;2023-11-18T16:49:29;4.22;;;3.00;;
37645;SDS011;23489;49.600;6.138;2023-11-18T16:51:54;4.25;;;3.10;;
37645;SDS011;23489;49.600;6.138;2023-11-18T16:54:23;4.63;;;3.15;;
37645;SDS011;23489;49.600;6.138;2023-11-18T16:56:49;4.43;;;3.10;;
37645;SDS011;23489;49.600;6.138;2023-11-18T16:59:15;3.55;;;2.90;;
37645;SDS011;23489;49.600;6.138;2023-11-18T17:01:43;4.72;;;2.75;;
37645;SDS011;23489;49.600;6.138;2023-11-18T17:04:09;3.97;;;2.58;;
37645;SDS011;23489;49.600;6.138;2023-11-18T17:06:35;2.78;;;2.22;;
37645;SDS011;23489;49.600;6.138;2023-11-18T17:09:01;3.30;;;2.60;;
37645;SDS011;23489;49.600;6.138;2023-11-18T17:11:27;3.40;;;2.30;;
37645;SDS011;23489;49.600;6.138;2023-11-18T17:13:53;3.63;;;2.43;;
37645;SDS011;23489;49.600;6.138;2023-11-18T17:16:23;3.20;;;2.20;;
37645;SDS011;23489;49.600;6.138;2023-11-18T17:18:50;4.05;;;3.17;;
37645;SDS011;23489;49.600;6.138;2023-11-18T17:21:15;3.40;;;2.43;;
37645;SDS011;23489;49.600;6.138;2023-11-18T17:23:41;3.90;;;2.40;;
37645;SDS011;23489;49.600;6.138;2023-11-18T17:26:08;4.15;;;3.00;;
37645;SDS011;23489;49.600;6.138;2023-11-18T17:28:35;2.83;;;2.40;;
37645;SDS011;23489;49.600;6.138;2023-11-18T17:31:00;3.38;;;2.63;;
37645;SDS011;23489;49.600;6.138;2023-11-18T17:33:28;3.20;;;2.58;;
37645;SDS011;23489;49.600;6.138;2023-11-18T17:35:54;3.47;;;2.90;;
37645;SDS011;23489;49.600;6.138;2023-11-18T17:38:19;4.83;;;3.67;;
37645;SDS011;23489;49.600;6.138;2023-11-18T17:40:45;5.05;;;3.50;;
37645;SDS011;23489;49.600;6.138;2023-11-18T17:43:11;3.07;;;2.57;;
37645;SDS011;23489;49.600;6.138;2023-11-18T17:45:37;3.42;;;2.72;;
37645;SDS011;23489;49.600;6.138;2023-11-18T17:48:02;3.30;;;2.70;;
37645;SDS011;23489;49.600;6.138;2023-11-18T17:50:32;3.93;;;2.87;;
37645;SDS011;23489;49.600;6.138;2023-11-18T17:52:59;5.13;;;3.35;;
37645;SDS011;23489;49.600;6.138;2023-11-18T17:55:28;3.83;;;2.60;;
37645;SDS011;23489;49.600;6.138;2023-11-18T17:57:54;3.00;;;2.30;;
37645;SDS011;23489;49.600;6.138;2023-11-18T18:00:21;3.58;;;2.50;;
37645;SDS011;23489;49.600;6.138;2023-11-18T18:02:47;4.15;;;2.58;;
37645;SDS011;23489;49.600;6.138;2023-11-18T18:05:14;4.22;;;2.70;;
37645;SDS011;23489;49.600;6.138;2023-11-18T18:07:40;3.33;;;2.92;;
37645;SDS011;23489;49.600;6.138;2023-11-18T18:10:06;3.33;;;2.60;;
37645;SDS011;23489;49.600;6.138;2023-11-18T18:12:37;3.65;;;2.70;;
37645;SDS011;23489;49.600;6.138;2023-11-18T18:15:03;3.07;;;2.10;;
37645;SDS011;23489;49.600;6.138;2023-11-18T18:17:33;2.58;;;2.03;;
37645;SDS011;23489;49.600;6.138;2023-11-18T18:19:59;3.00;;;2.70;;
37645;SDS011;23489;49.600;6.138;2023-11-18T18:22:24;4.27;;;2.50;;
37645;SDS011;23489;49.600;6.138;2023-11-18T18:24:51;3.67;;;2.63;;
37645;SDS011;23489;49.600;6.138;2023-11-18T18:27:16;2.88;;;2.40;;
37645;SDS011;23489;49.600;6.138;2023-11-18T18:29:44;4.47;;;2.92;;
37645;SDS011;23489;49.600;6.138;2023-11-18T18:32:10;3.07;;;2.53;;
37645;SDS011;23489;49.600;6.138;2023-11-18T18:34:35;2.88;;;2.33;;
37645;SDS011;23489;49.600;6.138;2023-11-18T18:37:01;3.00;;;2.60;;
37645;SDS011;23489;49.600;6.138;2023-11-18T18:39:28;4.57;;;3.03;;
37645;SDS011;23489;49.600;6.138;2023-11-18T18:41:54;3.47;;;2.80;;
37645;SDS011;23489;49.600;6.138;2023-11-18T18:44:20;2.90;;;2.40;;
37645;SDS011;23489;49.600;6.138;2023-11-18T18:46:46;2.83;;;2.30;;
37645;SDS011;23489;49.600;6.138;2023-11-18T18:49:12;3.47;;;2.50;;
37645;SDS011;23489;49.600;6.138;2023-11-18T18:51:41;3.30;;;2.30;;
37645;SDS011;23489;49.600;6.138;2023-11-18T18:54:06;4.73;;;2.80;;
37645;SDS011;23489;49.600;6.138;2023-11-18T18:56:34;3.42;;;2.40;;
37645;SDS011;23489;49.600;6.138;2023-11-18T18:59:00;3.72;;;2.35;;
37645;SDS011;23489;49.600;6.138;2023-11-18T19:01:26;3.20;;;2.40;;
37645;SDS011;23489;49.600;6.138;2023-11-18T19:03:52;3.00;;;2.47;;
37645;SDS011;23489;49.600;6.138;2023-11-18T19:06:17;2.50;;;2.10;;
37645;SDS011;23489;49.600;6.138;2023-11-18T19:08:43;2.25;;;1.80;;
37645;SDS011;23489;49.600;6.138;2023-11-18T19:11:09;2.75;;;1.88;;
37645;SDS011;23489;49.600;6.138;2023-11-18T19:13:35;2.07;;;1.67;;
37645;SDS011;23489;49.600;6.138;2023-11-18T19:16:02;2.55;;;1.50;;
37645;SDS011;23489;49.600;6.138;2023-11-18T19:18:28;3.33;;;1.83;;
37645;SDS011;23489;49.600;6.138;2023-11-18T19:20:54;1.75;;;1.50;;
37645;SDS011;23489;49.600;6.138;2023-11-18T19:23:20;2.08;;;1.48;;
37645;SDS011;23489;49.600;6.138;2023-11-18T19:25:46;2.55;;;1.90;;
37645;SDS011;23489;49.600;6.138;2023-11-18T19:28:13;3.25;;;1.92;;
37645;SDS011;23489;49.600;6.138;2023-11-18T19:30:39;3.75;;;2.28;;
37645;SDS011;23489;49.600;6.138;2023-11-18T19:33:04;2.67;;;2.03;;
37645;SDS011;23489;49.600;6.138;2023-11-18T19:35:30;3.45;;;2.20;;
37645;SDS011;23489;49.600;6.138;2023-11-18T19:37:56;4.63;;;2.38;;
37645;SDS011;23489;49.600;6.138;2023-11-18T19:40:26;3.75;;;2.00;;
37645;SDS011;23489;49.600;6.138;2023-11-18T19:42:52;3.05;;;2.05;;
37645;SDS011;23489;49.600;6.138;2023-11-18T19:45:18;2.30;;;1.80;;
37645;SDS011;23489;49.600;6.138;2023-11-18T19:47:43;1.63;;;1.40;;
37645;SDS011;23489;49.600;6.138;2023-11-18T19:50:09;1.50;;;1.40;;
37645;SDS011;23489;49.600;6.138;2023-11-18T19:52:37;1.80;;;1.70;;
37645;SDS011;23489;49.600;6.138;2023-11-18T19:55:03;1.90;;;1.55;;
37645;SDS011;23489;49.600;6.138;2023-11-18T19:57:29;1.52;;;1.20;;
37645;SDS011;23489;49.600;6.138;2023-11-18T19:59:55;1.55;;;1.40;;
37645;SDS011;23489;49.600;6.138;2023-11-18T20:02:21;1.40;;;1.25;;
37645;SDS011;23489;49.600;6.138;2023-11-18T20:04:48;1.20;;;1.10;;
37645;SDS011;23489;49.600;6.138;2023-11-18T20:07:14;0.88;;;0.85;;
37645;SDS011;23489;49.600;6.138;2023-11-18T20:09:40;1.33;;;1.20;;
37645;SDS011;23489;49.600;6.138;2023-11-18T20:12:06;1.10;;;1.00;;
37645;SDS011;23489;49.600;6.138;2023-11-18T20:14:33;1.10;;;1.00;;
37645;SDS011;23489;49.600;6.138;2023-11-18T20:16:59;3.50;;;1.10;;
37645;SDS011;23489;49.600;6.138;2023-11-18T20:19:25;1.58;;;1.30;;
37645;SDS011;23489;49.600;6.138;2023-11-18T20:21:54;2.47;;;1.33;;
37645;SDS011;23489;49.600;6.138;2023-11-18T20:24:20;3.90;;;1.83;;
37645;SDS011;23489;49.600;6.138;2023-11-18T20:26:46;1.50;;;1.20;;
37645;SDS011;23489;49.600;6.138;2023-11-18T20:29:11;1.23;;;1.13;;
37645;SDS011;23489;49.600;6.138;2023-11-18T20:31:38;1.23;;;1.13;;
37645;SDS011;23489;49.600;6.138;2023-11-18T20:34:04;1.00;;;0.90;;
37645;SDS011;23489;49.600;6.138;2023-11-18T20:36:30;1.70;;;1.30;;
37645;SDS011;23489;49.600;6.138;2023-11-18T20:38:57;1.70;;;1.20;;
37645;SDS011;23489;49.600;6.138;2023-11-18T20:41:23;1.10;;;1.00;;
37645;SDS011;23489;49.600;6.138;2023-11-18T20:43:49;0.88;;;0.82;;